createdAt,value
2019-05-13T14:13:45.470Z,10.72
2019-05-13T14:22:57.268Z,10.53
2019-05-13T14:28:56.910Z,11.05
2019-05-13T14:31:51.982Z,10.55
2019-05-13T14:40:41.604Z,11.68
2019-05-13T14:49:31.958Z,11.60
2019-05-13T14:52:14.698Z,11.93
2019-05-13T14:54:51.408Z,12.18
2019-05-13T14:57:24.100Z,12.43
2019-05-13T15:00:02.204Z,9.55
2019-05-13T15:02:35.919Z,11.45
2019-05-13T15:05:15.355Z,11.33
2019-05-13T15:11:05.888Z,10.80
2019-05-13T15:13:53.021Z,11.15
2019-05-13T15:16:38.642Z,10.65
2019-05-13T15:22:22.692Z,10.80
2019-05-13T15:28:16.796Z,11.35
2019-05-13T15:33:41.881Z,13.30
2019-05-13T15:36:15.553Z,12.98
2019-05-13T15:38:49.123Z,14.43
2019-05-13T15:41:21.706Z,14.50
2019-05-13T15:43:55.242Z,14.03
2019-05-13T15:46:28.466Z,14.55
2019-05-13T15:49:02.193Z,14.05
2019-05-13T15:51:35.096Z,14.33
2019-05-13T15:54:08.378Z,13.72
2019-05-13T15:56:40.889Z,13.68
2019-05-13T15:59:13.534Z,13.85
2019-05-13T16:01:46.855Z,14.18
2019-05-13T16:04:21.352Z,13.15
2019-05-13T16:07:09.192Z,14.58
2019-05-13T16:09:44.829Z,15.03
2019-05-13T16:12:16.932Z,15.05
2019-05-13T16:14:49.154Z,13.58
2019-05-13T16:17:38.765Z,16.37
2019-05-13T16:20:03.848Z,15.53
2019-05-13T16:22:37.766Z,16.30
2019-05-13T16:25:18.206Z,14.98
2019-05-13T16:27:52.031Z,14.70
2019-05-13T16:30:25.801Z,16.70
2019-05-13T16:33:02.256Z,15.70
2019-05-13T16:35:34.111Z,18.23
2019-05-13T16:38:16.997Z,16.97
2019-05-13T16:40:51.512Z,17.45
2019-05-13T16:43:26.500Z,17.57
2019-05-13T16:45:59.049Z,15.30
2019-05-13T16:48:32.474Z,18.15
2019-05-13T16:51:06.850Z,14.50
2019-05-13T16:53:42.802Z,17.50
2019-05-13T16:56:26.383Z,19.15
2019-05-13T16:58:52.018Z,18.92
2019-05-13T17:01:25.351Z,18.32
2019-05-13T17:03:58.555Z,18.07
2019-05-13T17:06:32.171Z,20.35
2019-05-13T17:09:06.013Z,19.92
2019-05-13T17:11:38.599Z,20.40
2019-05-13T17:14:13.149Z,16.23
2019-05-13T17:16:45.621Z,19.05
2019-05-13T17:19:18.757Z,19.82
2019-05-13T17:21:52.070Z,19.15
2019-05-13T17:24:24.852Z,20.27
2019-05-13T17:26:57.903Z,15.48
2019-05-13T17:29:31.692Z,18.70
2019-05-13T17:32:12.275Z,19.98
2019-05-13T17:34:45.997Z,20.02
2019-05-13T17:37:27.171Z,19.62
2019-05-13T17:40:01.456Z,18.13
2019-05-13T17:42:35.188Z,18.30
2019-05-13T17:45:11.303Z,17.30
2019-05-13T17:47:52.009Z,19.73
2019-05-13T17:50:25.313Z,19.02
2019-05-13T17:52:58.803Z,20.62
2019-05-13T17:55:31.544Z,18.48
2019-05-13T17:58:06.155Z,18.20
2019-05-13T18:00:41.371Z,18.48
2019-05-13T18:03:13.729Z,19.45
2019-05-13T18:05:46.561Z,22.42
2019-05-13T18:08:19.610Z,21.48
2019-05-13T18:10:52.584Z,20.48
2019-05-13T18:13:25.894Z,15.15
2019-05-13T18:16:02.440Z,20.90
2019-05-13T18:18:42.676Z,15.45
2019-05-13T18:21:08.161Z,22.05
2019-05-13T18:23:41.471Z,21.62
2019-05-13T18:26:16.234Z,16.50
2019-05-13T18:28:51.307Z,21.65
2019-05-13T18:31:24.853Z,15.60
2019-05-13T18:33:57.091Z,19.77
2019-05-13T18:36:31.815Z,22.67
2019-05-13T18:39:04.351Z,22.07
2019-05-13T18:41:37.151Z,21.75
2019-05-13T18:44:12.336Z,22.77
2019-05-13T18:46:44.271Z,21.00
2019-05-13T18:49:16.766Z,16.32
2019-05-13T18:51:49.741Z,21.85
2019-05-13T18:54:22.658Z,22.15
2019-05-13T18:56:58.563Z,22.22
2019-05-13T18:59:32.219Z,16.97
2019-05-13T19:02:06.717Z,15.55
2019-05-13T19:04:41.799Z,19.90
2019-05-13T19:07:15.107Z,16.70
2019-05-13T19:09:47.953Z,20.25
2019-05-13T19:12:21.967Z,17.05
2019-05-13T19:15:02.666Z,19.12
2019-05-13T19:17:36.300Z,17.17
2019-05-13T19:20:23.052Z,20.23
2019-05-13T19:23:04.403Z,21.02
2019-05-13T19:25:39.838Z,15.80
2019-05-13T19:28:17.945Z,21.05
2019-05-13T19:30:57.845Z,17.02
2019-05-13T19:33:37.954Z,19.95
2019-05-13T19:36:11.924Z,19.52
2019-05-13T19:38:51.646Z,21.20
2019-05-13T19:41:34.622Z,16.52
2019-05-13T19:44:09.337Z,19.55
2019-05-13T19:46:45.616Z,21.05
2019-05-13T19:49:31.925Z,15.85
2019-05-13T19:51:53.489Z,20.75
2019-05-13T19:54:26.363Z,22.65
2019-05-13T19:57:01.426Z,22.77
2019-05-13T19:59:33.780Z,17.90
2019-05-13T20:02:06.933Z,22.58
2019-05-13T20:04:41.386Z,18.73
2019-05-13T20:07:13.455Z,20.50
2019-05-13T20:09:46.499Z,22.42
2019-05-13T20:12:21.250Z,17.40
2019-05-13T20:15:01.410Z,19.98
2019-05-13T20:17:34.669Z,20.48
2019-05-13T20:20:12.410Z,21.62
2019-05-13T20:22:44.528Z,21.35
2019-05-13T20:25:18.011Z,22.93
2019-05-13T20:27:51.565Z,22.90
2019-05-13T20:30:24.930Z,22.22
2019-05-13T20:32:57.775Z,22.77
2019-05-13T20:35:31.396Z,22.87
2019-05-13T20:38:11.538Z,25.60
2019-05-13T20:40:44.696Z,23.90
2019-05-13T20:43:22.337Z,24.98
2019-05-13T20:45:55.341Z,21.27
2019-05-13T20:48:28.297Z,32.58
2019-05-13T20:51:02.712Z,35.75
2019-05-13T20:53:38.186Z,42.30
2019-05-13T20:56:11.355Z,39.15
2019-05-13T20:58:44.036Z,36.65
2019-05-13T21:01:16.458Z,35.00
2019-05-13T21:03:51.555Z,40.48
2019-05-13T21:06:23.899Z,41.77
2019-05-13T21:08:56.670Z,41.77
2019-05-13T21:11:31.095Z,37.08
2019-05-13T21:14:03.905Z,34.83
2019-05-13T21:16:36.744Z,30.65
2019-05-13T21:19:09.457Z,30.60
2019-05-13T21:21:42.441Z,30.95
2019-05-13T21:24:15.304Z,29.98
2019-05-13T21:26:48.554Z,30.50
2019-05-13T21:29:21.614Z,30.17
2019-05-13T21:31:54.400Z,30.25
2019-05-13T21:34:26.849Z,30.92
2019-05-13T21:37:02.373Z,30.95
2019-05-13T21:39:34.905Z,30.50
2019-05-13T21:42:07.736Z,30.62
2019-05-13T21:44:41.962Z,30.40
2019-05-13T21:47:14.957Z,31.45
2019-05-13T21:49:47.945Z,33.50
2019-05-13T21:52:23.593Z,34.50
2019-05-13T21:54:54.601Z,35.17
2019-05-13T21:57:27.701Z,36.68
2019-05-13T22:00:02.079Z,39.73
2019-05-13T22:02:35.345Z,42.85
2019-05-13T22:05:08.118Z,43.15
2019-05-13T22:07:42.119Z,44.18
2019-05-13T22:10:17.285Z,41.83
2019-05-13T22:12:51.920Z,45.65
2019-05-13T22:15:23.730Z,42.78
2019-05-13T22:17:56.566Z,38.13
2019-05-13T22:20:31.719Z,35.68
2019-05-13T22:23:04.453Z,32.10
2019-05-13T22:25:37.238Z,32.80
2019-05-13T22:28:11.772Z,30.02
2019-05-13T22:30:44.801Z,29.95
